sensor_id;sensor_type;location;lat;lon;timestamp;temperature;humidity
25951;DHT22;13748;52.240;6.002;2023-04-08T00:00:30;5.30;99.90
25951;DHT22;13748;52.240;6.002;2023-04-08T00:02:57;5.30;99.90
25951;DHT22;13748;52.240;6.002;2023-04-08T00:05:24;4.80;99.90
25951;DHT22;13748;52.240;6.002;2023-04-08T00:07:52;4.30;99.90
25951;DHT22;13748;52.240;6.002;2023-04-08T00:10:19;5.30;99.90
25951;DHT22;13748;52.240;6.002;2023-04-08T00:12:47;5.00;99.90
25951;DHT22;13748;52.240;6.002;2023-04-08T00:15:14;5.10;99.90
25951;DHT22;13748;52.240;6.002;2023-04-08T00:17:41;4.90;99.90
25951;DHT22;13748;52.240;6.002;2023-04-08T00:20:08;5.00;99.90
25951;DHT22;13748;52.240;6.002;2023-04-08T00:22:35;4.90;99.90
25951;DHT22;13748;52.240;6.002;2023-04-08T00:25:02;4.40;99.90
25951;DHT22;13748;52.240;6.002;2023-04-08T00:27:32;4.80;99.90
25951;DHT22;13748;52.240;6.002;2023-04-08T00:29:59;4.50;99.90
25951;DHT22;13748;52.240;6.002;2023-04-08T00:32:27;4.60;99.90
25951;DHT22;13748;52.240;6.002;2023-04-08T00:34:54;4.50;99.90
25951;DHT22;13748;52.240;6.002;2023-04-08T00:37:22;4.50;99.90
25951;DHT22;13748;52.240;6.002;2023-04-08T00:39:50;4.00;99.90
25951;DHT22;13748;52.240;6.002;2023-04-08T00:42:19;4.50;99.90
25951;DHT22;13748;52.240;6.002;2023-04-08T00:44:47;4.50;99.90
25951;DHT22;13748;52.240;6.002;2023-04-08T00:47:14;4.40;99.90
25951;DHT22;13748;52.240;6.002;2023-04-08T00:49:42;5.10;99.90
25951;DHT22;13748;52.240;6.002;2023-04-08T00:52:10;3.90;99.90
25951;DHT22;13748;52.240;6.002;2023-04-08T00:54:37;4.50;99.90
25951;DHT22;13748;52.240;6.002;2023-04-08T00:57:04;3.90;99.90
25951;DHT22;13748;52.240;6.002;2023-04-08T00:59:32;4.30;99.90
25951;DHT22;13748;52.240;6.002;2023-04-08T01:05:29;4.20;99.90
25951;DHT22;13748;52.240;6.002;2023-04-08T01:08:04;4.20;99.90
25951;DHT22;13748;52.240;6.002;2023-04-08T01:10:33;5.00;99.90
25951;DHT22;13748;52.240;6.002;2023-04-08T01:15:38;4.10;99.90
25951;DHT22;13748;52.240;6.002;2023-04-08T01:18:09;4.50;99.90
25951;DHT22;13748;52.240;6.002;2023-04-08T01:20:39;4.10;99.90
25951;DHT22;13748;52.240;6.002;2023-04-08T01:23:22;4.00;99.90
25951;DHT22;13748;52.240;6.002;2023-04-08T01:25:52;4.00;99.90
25951;DHT22;13748;52.240;6.002;2023-04-08T01:28:21;4.00;99.90
25951;DHT22;13748;52.240;6.002;2023-04-08T01:30:49;4.00;99.90
25951;DHT22;13748;52.240;6.002;2023-04-08T01:33:18;4.00;99.90
25951;DHT22;13748;52.240;6.002;2023-04-08T01:35:45;3.90;99.90
25951;DHT22;13748;52.240;6.002;2023-04-08T01:38:15;3.90;99.90
25951;DHT22;13748;52.240;6.002;2023-04-08T01:40:44;4.90;99.90
25951;DHT22;13748;52.240;6.002;2023-04-08T01:43:13;3.90;99.90
25951;DHT22;13748;52.240;6.002;2023-04-08T01:45:43;3.90;99.90
25951;DHT22;13748;52.240;6.002;2023-04-08T01:48:12;3.80;99.90
25951;DHT22;13748;52.240;6.002;2023-04-08T01:50:44;3.80;99.90
25951;DHT22;13748;52.240;6.002;2023-04-08T01:53:11;3.80;99.90
25951;DHT22;13748;52.240;6.002;2023-04-08T01:55:39;4.00;99.90
25951;DHT22;13748;52.240;6.002;2023-04-08T01:58:08;3.90;99.90
25951;DHT22;13748;52.240;6.002;2023-04-08T02:00:39;4.40;99.90
25951;DHT22;13748;52.240;6.002;2023-04-08T02:03:07;3.70;99.90
25951;DHT22;13748;52.240;6.002;2023-04-08T02:05:34;3.70;99.90
25951;DHT22;13748;52.240;6.002;2023-04-08T02:08:01;3.80;99.90
25951;DHT22;13748;52.240;6.002;2023-04-08T02:10:29;3.70;99.90
25951;DHT22;13748;52.240;6.002;2023-04-08T02:12:57;3.60;99.90
25951;DHT22;13748;52.240;6.002;2023-04-08T02:15:26;3.40;99.90
25951;DHT22;13748;52.240;6.002;2023-04-08T02:17:55;3.60;99.90
25951;DHT22;13748;52.240;6.002;2023-04-08T02:20:35;3.60;99.90
25951;DHT22;13748;52.240;6.002;2023-04-08T02:23:18;2.60;99.90
25951;DHT22;13748;52.240;6.002;2023-04-08T02:25:46;3.60;99.90
25951;DHT22;13748;52.240;6.002;2023-04-08T02:28:17;3.60;99.90
25951;DHT22;13748;52.240;6.002;2023-04-08T02:30:48;3.50;99.90
25951;DHT22;13748;52.240;6.002;2023-04-08T02:33:19;3.50;99.90
25951;DHT22;13748;52.240;6.002;2023-04-08T02:35:48;3.50;99.90
25951;DHT22;13748;52.240;6.002;2023-04-08T02:38:16;3.50;99.90
25951;DHT22;13748;52.240;6.002;2023-04-08T02:40:43;3.50;99.90
25951;DHT22;13748;52.240;6.002;2023-04-08T02:43:09;3.40;99.90
25951;DHT22;13748;52.240;6.002;2023-04-08T02:45:43;3.40;99.90
25951;DHT22;13748;52.240;6.002;2023-04-08T02:48:10;3.50;99.90
25951;DHT22;13748;52.240;6.002;2023-04-08T02:50:37;3.40;99.90
25951;DHT22;13748;52.240;6.002;2023-04-08T02:53:04;3.30;99.90
25951;DHT22;13748;52.240;6.002;2023-04-08T02:55:31;3.40;99.90
25951;DHT22;13748;52.240;6.002;2023-04-08T02:57:58;3.40;99.90
25951;DHT22;13748;52.240;6.002;2023-04-08T03:00:24;3.40;99.90
25951;DHT22;13748;52.240;6.002;2023-04-08T03:02:51;3.30;99.90
25951;DHT22;13748;52.240;6.002;2023-04-08T03:05:18;3.30;99.90
25951;DHT22;13748;52.240;6.002;2023-04-08T03:07:45;3.30;99.90
25951;DHT22;13748;52.240;6.002;2023-04-08T03:10:12;3.30;99.90
25951;DHT22;13748;52.240;6.002;2023-04-08T03:12:39;3.10;99.90
25951;DHT22;13748;52.240;6.002;2023-04-08T03:15:06;3.20;99.90
25951;DHT22;13748;52.240;6.002;2023-04-08T03:17:33;3.20;99.90
25951;DHT22;13748;52.240;6.002;2023-04-08T03:20:01;3.10;99.90
25951;DHT22;13748;52.240;6.002;2023-04-08T03:22:31;3.30;99.90
25951;DHT22;13748;52.240;6.002;2023-04-08T03:24:58;3.30;99.90
25951;DHT22;13748;52.240;6.002;2023-04-08T03:27:25;3.20;99.90
25951;DHT22;13748;52.240;6.002;2023-04-08T03:29:52;3.00;99.90
25951;DHT22;13748;52.240;6.002;2023-04-08T03:32:19;2.30;99.90
25951;DHT22;13748;52.240;6.002;2023-04-08T03:34:46;2.90;99.90
25951;DHT22;13748;52.240;6.002;2023-04-08T03:37:15;2.80;99.90
25951;DHT22;13748;52.240;6.002;2023-04-08T03:39:42;2.90;99.90
25951;DHT22;13748;52.240;6.002;2023-04-08T03:42:09;2.90;99.90
25951;DHT22;13748;52.240;6.002;2023-04-08T03:44:36;2.90;99.90
25951;DHT22;13748;52.240;6.002;2023-04-08T03:49:32;2.70;99.90
25951;DHT22;13748;52.240;6.002;2023-04-08T03:51:58;2.70;99.90
25951;DHT22;13748;52.240;6.002;2023-04-08T03:54:25;2.70;99.90
25951;DHT22;13748;52.240;6.002;2023-04-08T03:56:53;2.60;99.90
25951;DHT22;13748;52.240;6.002;2023-04-08T03:59:20;2.60;99.90
25951;DHT22;13748;52.240;6.002;2023-04-08T04:01:47;2.60;99.90
25951;DHT22;13748;52.240;6.002;2023-04-08T04:04:14;2.60;99.90
25951;DHT22;13748;52.240;6.002;2023-04-08T04:06:42;2.60;99.90
25951;DHT22;13748;52.240;6.002;2023-04-08T04:09:08;2.50;99.90
25951;DHT22;13748;52.240;6.002;2023-04-08T04:11:36;2.50;99.90
25951;DHT22;13748;52.240;6.002;2023-04-08T04:14:03;2.50;99.90
25951;DHT22;13748;52.240;6.002;2023-04-08T04:18:58;2.40;99.90
25951;DHT22;13748;52.240;6.002;2023-04-08T04:21:25;2.40;99.90
25951;DHT22;13748;52.240;6.002;2023-04-08T04:23:52;2.40;99.90
25951;DHT22;13748;52.240;6.002;2023-04-08T04:26:19;2.40;99.90
25951;DHT22;13748;52.240;6.002;2023-04-08T04:28:47;2.30;99.90
25951;DHT22;13748;52.240;6.002;2023-04-08T04:31:22;2.30;99.90
25951;DHT22;13748;52.240;6.002;2023-04-08T04:33:52;2.30;99.90
25951;DHT22;13748;52.240;6.002;2023-04-08T04:36:19;2.20;99.90
25951;DHT22;13748;52.240;6.002;2023-04-08T04:38:46;2.20;99.90
25951;DHT22;13748;52.240;6.002;2023-04-08T04:41:16;2.20;99.90
25951;DHT22;13748;52.240;6.002;2023-04-08T04:43:43;2.20;99.90
25951;DHT22;13748;52.240;6.002;2023-04-08T04:46:10;2.20;99.90
25951;DHT22;13748;52.240;6.002;2023-04-08T04:48:37;2.20;99.90
25951;DHT22;13748;52.240;6.002;2023-04-08T04:51:03;2.20;99.90
25951;DHT22;13748;52.240;6.002;2023-04-08T04:53:30;2.10;99.90
25951;DHT22;13748;52.240;6.002;2023-04-08T04:55:57;2.10;99.90
25951;DHT22;13748;52.240;6.002;2023-04-08T04:58:26;2.10;99.90
25951;DHT22;13748;52.240;6.002;2023-04-08T05:00:53;2.10;99.90
25951;DHT22;13748;52.240;6.002;2023-04-08T05:03:21;2.10;99.90
25951;DHT22;13748;52.240;6.002;2023-04-08T05:05:52;2.10;99.90
25951;DHT22;13748;52.240;6.002;2023-04-08T05:08:20;2.10;99.90
25951;DHT22;13748;52.240;6.002;2023-04-08T05:10:47;2.10;99.90
25951;DHT22;13748;52.240;6.002;2023-04-08T05:13:17;2.10;99.90
25951;DHT22;13748;52.240;6.002;2023-04-08T05:15:44;2.10;99.90
25951;DHT22;13748;52.240;6.002;2023-04-08T05:18:12;2.10;99.90
25951;DHT22;13748;52.240;6.002;2023-04-08T05:20:38;2.00;99.90
25951;DHT22;13748;52.240;6.002;2023-04-08T05:23:05;2.10;99.90
25951;DHT22;13748;52.240;6.002;2023-04-08T05:25:33;2.20;99.90
25951;DHT22;13748;52.240;6.002;2023-04-08T05:28:00;2.20;99.90
25951;DHT22;13748;52.240;6.002;2023-04-08T05:30:27;2.20;99.90
25951;DHT22;13748;52.240;6.002;2023-04-08T05:32:53;2.20;99.90
25951;DHT22;13748;52.240;6.002;2023-04-08T05:35:23;2.20;99.90
25951;DHT22;13748;52.240;6.002;2023-04-08T05:37:50;2.20;99.90
25951;DHT22;13748;52.240;6.002;2023-04-08T05:40:17;2.30;99.90
25951;DHT22;13748;52.240;6.002;2023-04-08T05:42:43;2.30;99.90
25951;DHT22;13748;52.240;6.002;2023-04-08T05:45:10;2.30;99.90
25951;DHT22;13748;52.240;6.002;2023-04-08T05:47:37;2.30;99.90
25951;DHT22;13748;52.240;6.002;2023-04-08T05:50:04;2.40;99.90
25951;DHT22;13748;52.240;6.002;2023-04-08T05:52:32;2.40;99.90
25951;DHT22;13748;52.240;6.002;2023-04-08T05:55:00;2.40;99.90
25951;DHT22;13748;52.240;6.002;2023-04-08T05:57:26;2.40;99.90
25951;DHT22;13748;52.240;6.002;2023-04-08T05:59:53;2.50;99.90
25951;DHT22;13748;52.240;6.002;2023-04-08T06:02:20;2.60;99.90
25951;DHT22;13748;52.240;6.002;2023-04-08T06:04:47;2.60;99.90
25951;DHT22;13748;52.240;6.002;2023-04-08T06:07:14;2.70;99.90
25951;DHT22;13748;52.240;6.002;2023-04-08T06:09:41;2.70;99.90
25951;DHT22;13748;52.240;6.002;2023-04-08T06:12:10;2.80;99.90
25951;DHT22;13748;52.240;6.002;2023-04-08T06:14:37;2.80;99.90
25951;DHT22;13748;52.240;6.002;2023-04-08T06:17:04;2.90;99.90
25951;DHT22;13748;52.240;6.002;2023-04-08T06:19:31;2.90;99.90
25951;DHT22;13748;52.240;6.002;2023-04-08T06:22:01;3.00;99.90
25951;DHT22;13748;52.240;6.002;2023-04-08T06:24:28;3.00;99.90
25951;DHT22;13748;52.240;6.002;2023-04-08T06:26:55;3.10;99.90
25951;DHT22;13748;52.240;6.002;2023-04-08T06:29:22;3.20;99.90
25951;DHT22;13748;52.240;6.002;2023-04-08T06:31:49;3.20;99.90
25951;DHT22;13748;52.240;6.002;2023-04-08T06:34:16;3.30;99.90
25951;DHT22;13748;52.240;6.002;2023-04-08T06:36:43;3.50;99.90
25951;DHT22;13748;52.240;6.002;2023-04-08T06:39:10;3.60;99.90
25951;DHT22;13748;52.240;6.002;2023-04-08T06:41:38;3.70;99.90
25951;DHT22;13748;52.240;6.002;2023-04-08T06:44:05;3.90;99.90
25951;DHT22;13748;52.240;6.002;2023-04-08T06:46:32;4.00;99.90
25951;DHT22;13748;52.240;6.002;2023-04-08T06:48:58;4.20;99.90
25951;DHT22;13748;52.240;6.002;2023-04-08T06:51:25;4.30;99.90
25951;DHT22;13748;52.240;6.002;2023-04-08T06:53:54;4.40;99.90
25951;DHT22;13748;52.240;6.002;2023-04-08T06:56:20;4.60;99.90
25951;DHT22;13748;52.240;6.002;2023-04-08T06:58:48;4.60;99.90
25951;DHT22;13748;52.240;6.002;2023-04-08T07:01:15;4.70;99.90
25951;DHT22;13748;52.240;6.002;2023-04-08T07:03:43;4.70;99.90
25951;DHT22;13748;52.240;6.002;2023-04-08T07:06:10;4.70;99.90
25951;DHT22;13748;52.240;6.002;2023-04-08T07:08:37;4.80;99.90
25951;DHT22;13748;52.240;6.002;2023-04-08T07:11:05;4.80;99.90
25951;DHT22;13748;52.240;6.002;2023-04-08T07:13:34;4.90;99.90
25951;DHT22;13748;52.240;6.002;2023-04-08T07:16:01;5.10;99.90
25951;DHT22;13748;52.240;6.002;2023-04-08T07:18:28;5.20;99.90
25951;DHT22;13748;52.240;6.002;2023-04-08T07:20:56;5.40;99.90
25951;DHT22;13748;52.240;6.002;2023-04-08T07:23:23;5.60;99.90
25951;DHT22;13748;52.240;6.002;2023-04-08T07:25:50;5.70;99.90
25951;DHT22;13748;52.240;6.002;2023-04-08T07:28:18;5.90;99.90
25951;DHT22;13748;52.240;6.002;2023-04-08T07:30:45;5.90;99.90
25951;DHT22;13748;52.240;6.002;2023-04-08T07:33:12;6.00;99.90
25951;DHT22;13748;52.240;6.002;2023-04-08T07:35:42;6.20;99.90
25951;DHT22;13748;52.240;6.002;2023-04-08T07:38:09;6.50;99.90
25951;DHT22;13748;52.240;6.002;2023-04-08T07:40:37;7.10;99.90
25951;DHT22;13748;52.240;6.002;2023-04-08T07:43:04;7.50;99.90
25951;DHT22;13748;52.240;6.002;2023-04-08T07:45:32;8.30;99.90
25951;DHT22;13748;52.240;6.002;2023-04-08T07:47:58;8.90;99.90
25951;DHT22;13748;52.240;6.002;2023-04-08T07:50:30;9.50;99.90
25951;DHT22;13748;52.240;6.002;2023-04-08T07:52:58;9.70;99.90
25951;DHT22;13748;52.240;6.002;2023-04-08T07:55:25;10.10;99.90
25951;DHT22;13748;52.240;6.002;2023-04-08T07:57:52;10.40;99.90
25951;DHT22;13748;52.240;6.002;2023-04-08T08:00:19;10.60;99.90
25951;DHT22;13748;52.240;6.002;2023-04-08T08:02:47;10.90;99.90
25951;DHT22;13748;52.240;6.002;2023-04-08T08:05:14;11.20;99.90
25951;DHT22;13748;52.240;6.002;2023-04-08T08:07:41;11.50;99.90
25951;DHT22;13748;52.240;6.002;2023-04-08T08:10:08;11.50;99.90
25951;DHT22;13748;52.240;6.002;2023-04-08T08:12:36;11.50;99.90
25951;DHT22;13748;52.240;6.002;2023-04-08T08:15:03;11.90;99.90
25951;DHT22;13748;52.240;6.002;2023-04-08T08:17:31;12.30;99.90
25951;DHT22;13748;52.240;6.002;2023-04-08T08:19:59;12.60;99.90
25951;DHT22;13748;52.240;6.002;2023-04-08T08:22:26;12.90;99.90
25951;DHT22;13748;52.240;6.002;2023-04-08T08:24:56;13.10;99.90
25951;DHT22;13748;52.240;6.002;2023-04-08T08:27:25;13.20;99.90
25951;DHT22;13748;52.240;6.002;2023-04-08T08:29:52;13.30;99.90
25951;DHT22;13748;52.240;6.002;2023-04-08T08:32:18;13.20;99.90
25951;DHT22;13748;52.240;6.002;2023-04-08T08:34:45;13.50;99.90
25951;DHT22;13748;52.240;6.002;2023-04-08T08:37:12;13.70;99.90
25951;DHT22;13748;52.240;6.002;2023-04-08T08:39:39;13.70;99.90
25951;DHT22;13748;52.240;6.002;2023-04-08T08:42:05;13.80;99.90
25951;DHT22;13748;52.240;6.002;2023-04-08T08:44:33;14.00;99.90
25951;DHT22;13748;52.240;6.002;2023-04-08T08:47:00;14.30;99.90
25951;DHT22;13748;52.240;6.002;2023-04-08T08:49:27;14.40;99.90
25951;DHT22;13748;52.240;6.002;2023-04-08T08:51:54;14.50;99.90
25951;DHT22;13748;52.240;6.002;2023-04-08T08:54:21;14.60;99.90
25951;DHT22;13748;52.240;6.002;2023-04-08T08:56:48;14.70;99.90
25951;DHT22;13748;52.240;6.002;2023-04-08T08:59:15;14.90;99.90
25951;DHT22;13748;52.240;6.002;2023-04-08T09:01:42;14.90;99.90
25951;DHT22;13748;52.240;6.002;2023-04-08T09:04:12;14.70;99.90
25951;DHT22;13748;52.240;6.002;2023-04-08T09:06:42;14.70;99.90
25951;DHT22;13748;52.240;6.002;2023-04-08T09:09:09;14.60;99.90
25951;DHT22;13748;52.240;6.002;2023-04-08T09:11:37;14.80;99.90
25951;DHT22;13748;52.240;6.002;2023-04-08T09:14:16;15.10;99.90
25951;DHT22;13748;52.240;6.002;2023-04-08T09:16:43;15.30;99.90
25951;DHT22;13748;52.240;6.002;2023-04-08T09:19:11;15.40;99.90
25951;DHT22;13748;52.240;6.002;2023-04-08T09:21:38;15.10;99.90
25951;DHT22;13748;52.240;6.002;2023-04-08T09:24:08;15.00;99.90
25951;DHT22;13748;52.240;6.002;2023-04-08T09:26:35;15.00;99.90
25951;DHT22;13748;52.240;6.002;2023-04-08T09:29:07;15.00;99.90
25951;DHT22;13748;52.240;6.002;2023-04-08T09:31:55;15.10;99.90
25951;DHT22;13748;52.240;6.002;2023-04-08T09:34:24;15.10;99.90
25951;DHT22;13748;52.240;6.002;2023-04-08T09:36:52;14.90;99.90
25951;DHT22;13748;52.240;6.002;2023-04-08T09:39:19;14.70;99.90
25951;DHT22;13748;52.240;6.002;2023-04-08T09:41:50;15.00;99.90
25951;DHT22;13748;52.240;6.002;2023-04-08T09:44:20;15.00;99.90
25951;DHT22;13748;52.240;6.002;2023-04-08T09:52:43;15.30;99.90
25951;DHT22;13748;52.240;6.002;2023-04-08T09:55:12;15.30;99.90
25951;DHT22;13748;52.240;6.002;2023-04-08T09:57:51;15.40;99.90
25951;DHT22;13748;52.240;6.002;2023-04-08T10:00:25;15.20;99.90
25951;DHT22;13748;52.240;6.002;2023-04-08T10:02:55;15.00;99.90
25951;DHT22;13748;52.240;6.002;2023-04-08T10:05:24;14.70;99.90
25951;DHT22;13748;52.240;6.002;2023-04-08T10:07:51;14.70;99.90
25951;DHT22;13748;52.240;6.002;2023-04-08T10:10:18;14.50;99.90
25951;DHT22;13748;52.240;6.002;2023-04-08T10:12:47;14.50;99.90
25951;DHT22;13748;52.240;6.002;2023-04-08T10:17:55;14.70;99.90
25951;DHT22;13748;52.240;6.002;2023-04-08T10:20:46;14.60;99.90
25951;DHT22;13748;52.240;6.002;2023-04-08T10:23:15;14.60;99.90
25951;DHT22;13748;52.240;6.002;2023-04-08T10:25:46;14.70;99.90
25951;DHT22;13748;52.240;6.002;2023-04-08T10:33:22;14.50;99.90
25951;DHT22;13748;52.240;6.002;2023-04-08T10:36:10;14.50;99.90
25951;DHT22;13748;52.240;6.002;2023-04-08T10:38:41;14.50;99.90
25951;DHT22;13748;52.240;6.002;2023-04-08T10:41:09;14.50;99.90
25951;DHT22;13748;52.240;6.002;2023-04-08T10:43:37;14.50;99.90
25951;DHT22;13748;52.240;6.002;2023-04-08T10:46:04;14.40;99.90
25951;DHT22;13748;52.240;6.002;2023-04-08T10:48:31;14.30;99.90
25951;DHT22;13748;52.240;6.002;2023-04-08T10:51:02;14.40;99.90
25951;DHT22;13748;52.240;6.002;2023-04-08T10:53:34;14.50;99.90
25951;DHT22;13748;52.240;6.002;2023-04-08T10:56:10;14.60;99.90
25951;DHT22;13748;52.240;6.002;2023-04-08T10:58:49;14.90;99.90
25951;DHT22;13748;52.240;6.002;2023-04-08T11:01:18;14.90;99.90
25951;DHT22;13748;52.240;6.002;2023-04-08T11:03:45;15.00;99.90
25951;DHT22;13748;52.240;6.002;2023-04-08T11:06:12;15.10;99.90
25951;DHT22;13748;52.240;6.002;2023-04-08T11:08:39;15.20;99.90
25951;DHT22;13748;52.240;6.002;2023-04-08T11:11:07;15.30;99.90
25951;DHT22;13748;52.240;6.002;2023-04-08T11:13:42;15.40;99.90
25951;DHT22;13748;52.240;6.002;2023-04-08T11:16:20;15.40;99.90
25951;DHT22;13748;52.240;6.002;2023-04-08T11:18:49;15.30;99.90
25951;DHT22;13748;52.240;6.002;2023-04-08T11:21:17;15.20;99.90
25951;DHT22;13748;52.240;6.002;2023-04-08T11:23:44;15.20;99.90
25951;DHT22;13748;52.240;6.002;2023-04-08T11:26:11;15.20;99.90
25951;DHT22;13748;52.240;6.002;2023-04-08T11:28:39;15.20;99.90
25951;DHT22;13748;52.240;6.002;2023-04-08T11:31:06;15.20;99.90
25951;DHT22;13748;52.240;6.002;2023-04-08T11:33:34;15.10;99.90
25951;DHT22;13748;52.240;6.002;2023-04-08T11:36:02;15.20;99.90
25951;DHT22;13748;52.240;6.002;2023-04-08T11:38:30;15.20;99.90
25951;DHT22;13748;52.240;6.002;2023-04-08T11:40:58;15.10;99.90
25951;DHT22;13748;52.240;6.002;2023-04-08T11:43:25;14.90;99.90
25951;DHT22;13748;52.240;6.002;2023-04-08T11:45:52;14.80;99.90
25951;DHT22;13748;52.240;6.002;2023-04-08T11:48:19;14.80;99.90
25951;DHT22;13748;52.240;6.002;2023-04-08T11:50:47;14.70;99.90
25951;DHT22;13748;52.240;6.002;2023-04-08T11:53:17;14.70;99.90
25951;DHT22;13748;52.240;6.002;2023-04-08T11:55:45;14.60;99.90
25951;DHT22;13748;52.240;6.002;2023-04-08T11:58:12;14.60;99.90
25951;DHT22;13748;52.240;6.002;2023-04-08T12:00:40;14.50;99.90
25951;DHT22;13748;52.240;6.002;2023-04-08T12:03:07;14.50;99.90
25951;DHT22;13748;52.240;6.002;2023-04-08T12:05:34;14.40;99.90
25951;DHT22;13748;52.240;6.002;2023-04-08T12:08:01;14.50;99.90
25951;DHT22;13748;52.240;6.002;2023-04-08T12:10:29;14.50;99.90
25951;DHT22;13748;52.240;6.002;2023-04-08T12:12:56;14.70;99.90
25951;DHT22;13748;52.240;6.002;2023-04-08T12:15:23;14.80;99.90
25951;DHT22;13748;52.240;6.002;2023-04-08T12:17:49;14.90;99.90
25951;DHT22;13748;52.240;6.002;2023-04-08T12:20:19;14.80;99.90
25951;DHT22;13748;52.240;6.002;2023-04-08T12:22:46;14.60;99.90
25951;DHT22;13748;52.240;6.002;2023-04-08T12:25:13;14.30;99.90
25951;DHT22;13748;52.240;6.002;2023-04-08T12:27:40;14.30;99.90
25951;DHT22;13748;52.240;6.002;2023-04-08T12:30:08;14.30;99.90
25951;DHT22;13748;52.240;6.002;2023-04-08T12:32:35;14.30;99.90
25951;DHT22;13748;52.240;6.002;2023-04-08T12:35:02;14.30;99.90
25951;DHT22;13748;52.240;6.002;2023-04-08T12:37:28;14.50;99.90
25951;DHT22;13748;52.240;6.002;2023-04-08T12:39:55;14.60;99.90
25951;DHT22;13748;52.240;6.002;2023-04-08T12:42:23;14.70;99.90
25951;DHT22;13748;52.240;6.002;2023-04-08T12:44:49;14.80;99.90
25951;DHT22;13748;52.240;6.002;2023-04-08T12:47:16;14.70;99.90
25951;DHT22;13748;52.240;6.002;2023-04-08T12:49:43;15.10;99.90
25951;DHT22;13748;52.240;6.002;2023-04-08T12:52:13;14.90;99.90
25951;DHT22;13748;52.240;6.002;2023-04-08T12:54:40;15.20;99.90
25951;DHT22;13748;52.240;6.002;2023-04-08T12:57:07;14.90;99.90
25951;DHT22;13748;52.240;6.002;2023-04-08T12:59:34;14.60;99.90
25951;DHT22;13748;52.240;6.002;2023-04-08T13:02:01;14.90;99.90
25951;DHT22;13748;52.240;6.002;2023-04-08T13:04:28;14.90;99.90
25951;DHT22;13748;52.240;6.002;2023-04-08T13:06:55;15.10;99.90
25951;DHT22;13748;52.240;6.002;2023-04-08T13:09:22;15.00;99.90
25951;DHT22;13748;52.240;6.002;2023-04-08T13:11:49;15.10;99.90
25951;DHT22;13748;52.240;6.002;2023-04-08T13:14:16;15.10;99.90
25951;DHT22;13748;52.240;6.002;2023-04-08T13:16:43;15.50;99.90
25951;DHT22;13748;52.240;6.002;2023-04-08T13:19:09;15.40;99.90
25951;DHT22;13748;52.240;6.002;2023-04-08T13:21:37;15.50;99.90
25951;DHT22;13748;52.240;6.002;2023-04-08T13:24:04;15.80;99.90
25951;DHT22;13748;52.240;6.002;2023-04-08T13:26:30;15.90;99.90
25951;DHT22;13748;52.240;6.002;2023-04-08T13:28:57;16.00;99.90
25951;DHT22;13748;52.240;6.002;2023-04-08T13:31:24;16.10;99.90
25951;DHT22;13748;52.240;6.002;2023-04-08T13:33:51;16.30;99.90
25951;DHT22;13748;52.240;6.002;2023-04-08T13:36:22;16.50;99.90
25951;DHT22;13748;52.240;6.002;2023-04-08T13:38:49;16.70;99.90
25951;DHT22;13748;52.240;6.002;2023-04-08T13:41:16;16.70;99.90
25951;DHT22;13748;52.240;6.002;2023-04-08T13:43:43;16.90;99.90
25951;DHT22;13748;52.240;6.002;2023-04-08T13:46:09;17.10;99.90
25951;DHT22;13748;52.240;6.002;2023-04-08T13:48:37;17.10;99.90
25951;DHT22;13748;52.240;6.002;2023-04-08T13:51:03;17.10;99.90
25951;DHT22;13748;52.240;6.002;2023-04-08T13:53:31;17.10;99.90
25951;DHT22;13748;52.240;6.002;2023-04-08T13:55:57;17.20;99.90
25951;DHT22;13748;52.240;6.002;2023-04-08T13:58:24;17.20;99.90
25951;DHT22;13748;52.240;6.002;2023-04-08T14:00:52;17.10;99.90
25951;DHT22;13748;52.240;6.002;2023-04-08T14:03:19;16.90;99.90
25951;DHT22;13748;52.240;6.002;2023-04-08T14:05:46;16.70;99.90
25951;DHT22;13748;52.240;6.002;2023-04-08T14:08:13;16.80;99.90
25951;DHT22;13748;52.240;6.002;2023-04-08T14:10:39;16.60;99.90
25951;DHT22;13748;52.240;6.002;2023-04-08T14:13:08;16.50;99.90
25951;DHT22;13748;52.240;6.002;2023-04-08T14:15:34;16.30;99.90
25951;DHT22;13748;52.240;6.002;2023-04-08T14:18:02;16.40;99.90
25951;DHT22;13748;52.240;6.002;2023-04-08T14:20:28;16.40;99.90
25951;DHT22;13748;52.240;6.002;2023-04-08T14:22:55;16.70;99.90
25951;DHT22;13748;52.240;6.002;2023-04-08T14:25:22;16.80;99.90
25951;DHT22;13748;52.240;6.002;2023-04-08T14:27:49;16.90;99.90
25951;DHT22;13748;52.240;6.002;2023-04-08T14:30:24;17.10;99.90
25951;DHT22;13748;52.240;6.002;2023-04-08T14:32:53;17.00;99.90
25951;DHT22;13748;52.240;6.002;2023-04-08T14:35:20;17.20;99.90
25951;DHT22;13748;52.240;6.002;2023-04-08T14:37:47;17.10;99.90
25951;DHT22;13748;52.240;6.002;2023-04-08T14:40:14;17.10;99.90
25951;DHT22;13748;52.240;6.002;2023-04-08T14:42:41;17.00;99.90
25951;DHT22;13748;52.240;6.002;2023-04-08T14:45:08;17.10;99.90
25951;DHT22;13748;52.240;6.002;2023-04-08T14:47:35;17.00;99.90
25951;DHT22;13748;52.240;6.002;2023-04-08T14:50:02;17.10;99.90
25951;DHT22;13748;52.240;6.002;2023-04-08T14:52:28;17.10;99.90
25951;DHT22;13748;52.240;6.002;2023-04-08T14:54:55;17.30;99.90
25951;DHT22;13748;52.240;6.002;2023-04-08T14:57:22;17.10;99.90
25951;DHT22;13748;52.240;6.002;2023-04-08T14:59:49;16.90;99.90
25951;DHT22;13748;52.240;6.002;2023-04-08T15:02:16;17.10;99.90
25951;DHT22;13748;52.240;6.002;2023-04-08T15:04:43;16.90;99.90
25951;DHT22;13748;52.240;6.002;2023-04-08T15:07:10;16.80;99.90
25951;DHT22;13748;52.240;6.002;2023-04-08T15:09:37;16.60;99.90
25951;DHT22;13748;52.240;6.002;2023-04-08T15:12:04;16.80;99.90
25951;DHT22;13748;52.240;6.002;2023-04-08T15:14:31;16.80;99.90
25951;DHT22;13748;52.240;6.002;2023-04-08T15:16:57;16.60;99.90
25951;DHT22;13748;52.240;6.002;2023-04-08T15:19:24;16.70;99.90
25951;DHT22;13748;52.240;6.002;2023-04-08T15:21:51;16.60;99.90
25951;DHT22;13748;52.240;6.002;2023-04-08T15:24:18;16.60;99.90
25951;DHT22;13748;52.240;6.002;2023-04-08T15:26:48;16.60;99.90
25951;DHT22;13748;52.240;6.002;2023-04-08T15:29:15;16.80;99.90
25951;DHT22;13748;52.240;6.002;2023-04-08T15:31:42;16.70;99.90
25951;DHT22;13748;52.240;6.002;2023-04-08T15:34:09;16.80;99.90
25951;DHT22;13748;52.240;6.002;2023-04-08T15:36:36;16.60;99.90
25951;DHT22;13748;52.240;6.002;2023-04-08T15:39:03;16.50;99.90
25951;DHT22;13748;52.240;6.002;2023-04-08T15:41:31;16.20;99.90
25951;DHT22;13748;52.240;6.002;2023-04-08T15:43:58;16.00;99.90
25951;DHT22;13748;52.240;6.002;2023-04-08T15:46:25;15.80;99.90
25951;DHT22;13748;52.240;6.002;2023-04-08T15:48:51;15.60;99.90
25951;DHT22;13748;52.240;6.002;2023-04-08T15:51:19;15.60;99.90
25951;DHT22;13748;52.240;6.002;2023-04-08T15:53:46;15.60;99.90
25951;DHT22;13748;52.240;6.002;2023-04-08T15:56:13;15.60;99.90
25951;DHT22;13748;52.240;6.002;2023-04-08T15:58:41;15.60;99.90
25951;DHT22;13748;52.240;6.002;2023-04-08T16:01:09;15.50;99.90
25951;DHT22;13748;52.240;6.002;2023-04-08T16:03:35;15.70;99.90
25951;DHT22;13748;52.240;6.002;2023-04-08T16:06:03;15.70;99.90